Time;durP1;ratioP1;P1;durP2;ratioP2;P2;SDS_P1;SDS_P2;PMS_P1;PMS_P2;Temp;Humidity;BMP_temperature;BMP_pressure;BME280_temperature;BME280_humidity;BME280_pressure;Samples;Min_cycle;Max_cycle;Signal;HPM_P1;HPM_P2
2022/01/10 00:02:06;;;;;;;16.02;5.90;;;1.90;99.90;;;;;;5007006;28;20056;-72
2022/01/10 00:04:32;;;;;;;12.23;5.25;;;1.90;99.90;;;;;;5009612;28;20470;-72
2022/01/10 00:06:57;;;;;;;14.23;5.13;;;1.80;99.90;;;;;;5015862;28;20085;-73
2022/01/10 00:09:23;;;;;;;11.30;4.82;;;1.80;99.90;;;;;;5033606;28;20041;-72
2022/01/10 00:11:48;;;;;;;14.25;4.95;;;1.80;99.90;;;;;;5013766;28;20045;-72
2022/01/10 00:14:14;;;;;;;11.18;5.43;;;1.80;99.90;;;;;;5013149;28;20049;-73
2022/01/10 00:16:40;;;;;;;14.52;5.60;;;1.70;99.90;;;;;;4999589;28;20101;-72
2022/01/10 00:19:06;;;;;;;16.92;6.30;;;1.70;99.90;;;;;;5012864;28;20037;-73
2022/01/10 00:21:32;;;;;;;14.65;5.35;;;1.70;99.90;;;;;;4987089;28;20049;-72
2022/01/10 00:23:57;;;;;;;18.38;5.80;;;1.70;99.90;;;;;;5014038;28;20383;-72
2022/01/10 00:26:23;;;;;;;10.63;4.82;;;1.60;99.90;;;;;;5015672;28;20045;-72
2022/01/10 00:28:48;;;;;;;15.77;5.22;;;1.60;99.90;;;;;;5015397;28;20049;-72
2022/01/10 00:31:14;;;;;;;14.57;5.45;;;1.50;99.90;;;;;;5015117;28;20112;-72
2022/01/10 00:33:39;;;;;;;15.50;5.75;;;1.50;99.90;;;;;;5015255;28;20038;-73
2022/01/10 00:36:05;;;;;;;13.02;5.40;;;1.50;99.90;;;;;;5014259;28;20402;-73
2022/01/10 00:38:30;;;;;;;14.52;4.90;;;1.50;99.90;;;;;;5015413;28;20045;-73
2022/01/10 00:40:56;;;;;;;10.27;4.40;;;1.50;99.90;;;;;;5018070;28;20045;-72
2022/01/10 00:43:31;;;;;;;12.10;4.60;;;1.40;99.90;;;;;;4995238;28;20072;-72
2022/01/10 00:45:57;;;;;;;18.92;5.20;;;1.40;99.90;;;;;;5031746;28;20098;-72
2022/01/10 00:48:23;;;;;;;14.38;5.35;;;1.40;99.90;;;;;;5015186;28;20455;-72
2022/01/10 00:50:48;;;;;;;15.80;5.18;;;1.40;99.90;;;;;;4989598;28;20060;-72
2022/01/10 00:53:14;;;;;;;10.77;4.60;;;1.40;99.90;;;;;;5004920;28;20494;-72
2022/01/10 00:55:40;;;;;;;8.52;4.32;;;1.30;99.90;;;;;;4998467;28;20108;-72
2022/01/10 00:58:05;;;;;;;12.70;4.90;;;1.30;99.90;;;;;;5012942;28;20473;-72
2022/01/10 01:00:31;;;;;;;16.33;4.97;;;1.30;99.90;;;;;;5000421;28;20034;-72
2022/01/10 01:02:58;;;;;;;13.48;4.75;;;1.30;99.90;;;;;;5004954;28;20132;-72
2022/01/10 01:05:27;;;;;;;9.18;4.57;;;1.30;99.90;;;;;;4995762;28;20050;-73
2022/01/10 01:07:52;;;;;;;15.13;5.05;;;1.20;99.90;;;;;;4997691;28;20376;-72
2022/01/10 01:24:08;;;;;;;18.65;5.40;;;1.20;99.90;;;;;;5000300;28;20053;-72
2022/01/10 01:26:38;;;;;;;17.33;5.30;;;1.10;99.90;;;;;;5003959;28;20099;-73
2022/01/10 01:29:07;;;;;;;9.82;4.25;;;1.10;99.90;;;;;;4997839;28;20055;-72
2022/01/10 01:31:33;;;;;;;10.60;4.63;;;1.10;99.90;;;;;;5002435;28;20049;-73
2022/01/10 01:33:58;;;;;;;13.15;4.90;;;1.00;99.90;;;;;;5017858;28;20049;-72
2022/01/10 01:36:25;;;;;;;14.73;4.93;;;1.00;99.90;;;;;;5008091;28;20044;-72
2022/01/10 01:38:54;;;;;;;12.93;5.13;;;1.00;99.90;;;;;;5007715;28;20495;-73
2022/01/10 01:43:59;;;;;;;18.55;5.30;;;1.00;99.90;;;;;;5016833;28;20053;-72
2022/01/10 01:46:25;;;;;;;12.38;5.25;;;1.00;99.90;;;;;;5036381;28;20497;-72
2022/01/10 01:48:53;;;;;;;11.82;4.95;;;0.90;99.90;;;;;;5014428;28;20046;-72
2022/01/10 01:51:19;;;;;;;15.80;5.90;;;0.90;99.90;;;;;;5017887;28;20068;-73
2022/01/10 01:53:47;;;;;;;16.00;6.45;;;0.90;99.90;;;;;;5010732;28;20075;-72
2022/01/10 01:56:17;;;;;;;17.65;6.70;;;0.90;99.90;;;;;;5003443;28;20041;-73
2022/01/10 01:58:44;;;;;;;17.58;7.00;;;0.90;99.90;;;;;;5015647;28;20044;-72
2022/01/10 02:01:11;;;;;;;25.33;8.25;;;0.90;99.90;;;;;;5017900;28;20038;-73
2022/01/10 02:03:38;;;;;;;15.95;6.50;;;0.90;99.90;;;;;;5003507;28;20481;-72
2022/01/10 02:06:05;;;;;;;14.07;6.25;;;0.90;99.90;;;;;;5011101;28;20050;-72
2022/01/10 02:08:31;;;;;;;16.50;6.82;;;0.90;99.90;;;;;;5001159;28;20100;-72
2022/01/10 02:10:57;;;;;;;16.58;6.90;;;0.80;99.90;;;;;;5017821;28;20084;-72
2022/01/10 02:13:22;;;;;;;12.35;6.22;;;0.80;99.90;;;;;;5017693;28;20061;-73
2022/01/10 02:15:58;;;;;;;14.05;5.82;;;0.80;99.90;;;;;;5017676;28;20041;-72
2022/01/10 02:18:24;;;;;;;17.67;6.95;;;0.80;99.90;;;;;;5017423;28;20498;-73
2022/01/10 02:20:51;;;;;;;17.92;6.50;;;0.70;99.90;;;;;;5001357;28;20041;-72
2022/01/10 02:23:18;;;;;;;13.73;6.57;;;0.70;99.90;;;;;;5017705;28;20060;-71
2022/01/10 02:25:44;;;;;;;14.23;6.65;;;0.70;99.90;;;;;;5035935;28;20046;-72
2022/01/10 02:28:10;;;;;;;26.85;9.00;;;0.70;99.90;;;;;;5016727;28;20495;-72
2022/01/10 02:30:36;;;;;;;15.95;7.30;;;0.80;99.90;;;;;;5033391;28;20116;-72
2022/01/10 02:33:02;;;;;;;13.93;6.40;;;0.70;99.90;;;;;;5017213;28;20122;-72
2022/01/10 02:35:33;;;;;;;15.93;6.78;;;0.70;99.90;;;;;;5017124;28;20048;-72
2022/01/10 02:37:58;;;;;;;14.13;7.43;;;0.70;99.90;;;;;;5017350;28;20045;-72
2022/01/10 02:40:26;;;;;;;15.57;7.57;;;0.70;99.90;;;;;;5035004;28;20391;-72
2022/01/10 02:42:53;;;;;;;11.90;7.35;;;0.70;99.90;;;;;;5017096;28;20051;-73
2022/01/10 02:45:19;;;;;;;14.38;7.47;;;0.70;99.90;;;;;;5016751;28;20037;-72
2022/01/10 02:47:45;;;;;;;17.00;7.60;;;0.60;99.90;;;;;;5016860;28;20482;-72
2022/01/10 02:50:12;;;;;;;18.38;8.13;;;0.60;99.90;;;;;;5016224;28;20572;-72
2022/01/10 02:52:38;;;;;;;17.60;7.97;;;0.60;99.90;;;;;;5017073;28;20398;-73
2022/01/10 02:55:05;;;;;;;19.13;8.57;;;0.60;99.90;;;;;;5000778;28;20049;-72
2022/01/10 02:57:32;;;;;;;18.70;8.25;;;0.60;99.90;;;;;;5014192;28;20398;-72
2022/01/10 02:59:59;;;;;;;17.77;8.52;;;0.60;99.90;;;;;;5017043;28;20052;-72
2022/01/10 03:02:29;;;;;;;18.42;8.18;;;0.60;99.90;;;;;;5016712;28;20037;-72
2022/01/10 03:04:55;;;;;;;14.02;7.65;;;0.60;99.90;;;;;;5016772;28;20045;-72
2022/01/10 03:07:24;;;;;;;13.93;7.28;;;0.60;99.90;;;;;;5016843;28;20045;-72
2022/01/10 03:09:50;;;;;;;15.77;7.53;;;0.60;99.90;;;;;;5000230;28;20056;-72
2022/01/10 03:12:16;;;;;;;11.85;7.63;;;0.60;99.90;;;;;;4995968;28;20048;-72
2022/01/10 03:14:42;;;;;;;12.85;7.03;;;0.50;99.90;;;;;;5034694;28;20041;-72
2022/01/10 03:17:10;;;;;;;12.82;7.20;;;0.50;99.90;;;;;;5024081;28;20041;-72
2022/01/10 03:19:37;;;;;;;14.85;7.75;;;0.50;99.90;;;;;;5016501;28;20060;-72
2022/01/10 03:22:03;;;;;;;17.50;7.65;;;0.50;99.90;;;;;;5016467;28;20041;-72
2022/01/10 03:24:29;;;;;;;13.70;6.72;;;0.50;99.90;;;;;;5016335;28;20475;-72
2022/01/10 03:26:54;;;;;;;17.08;7.65;;;0.40;99.90;;;;;;5016520;28;20045;-73
2022/01/10 03:29:20;;;;;;;13.85;7.47;;;0.40;99.90;;;;;;5015953;28;20395;-72
2022/01/10 03:31:45;;;;;;;15.65;8.38;;;0.40;99.90;;;;;;5000067;28;20467;-72
2022/01/10 03:34:13;;;;;;;14.45;8.25;;;0.40;99.90;;;;;;5016457;28;20535;-72
2022/01/10 03:36:39;;;;;;;14.82;8.82;;;0.40;99.90;;;;;;5015308;28;20046;-72
2022/01/10 03:39:05;;;;;;;19.65;9.48;;;0.40;99.90;;;;;;5016472;28;20069;-73
2022/01/10 03:41:30;;;;;;;16.73;8.32;;;0.40;99.90;;;;;;5015987;28;20065;-73
2022/01/10 03:43:56;;;;;;;20.15;9.63;;;0.40;99.90;;;;;;5016073;28;20451;-72
2022/01/10 03:46:21;;;;;;;21.75;9.65;;;0.40;99.90;;;;;;5016094;28;20513;-72
2022/01/10 03:48:47;;;;;;;19.15;9.50;;;0.50;99.90;;;;;;5033966;28;20033;-72
2022/01/10 03:51:13;;;;;;;21.63;9.90;;;0.40;99.90;;;;;;5032325;28;20124;-73
2022/01/10 03:53:38;;;;;;;17.90;10.05;;;0.40;99.90;;;;;;5015615;28;20048;-72
2022/01/10 03:56:04;;;;;;;18.58;9.00;;;0.40;99.90;;;;;;5015649;28;20049;-72
2022/01/10 03:58:30;;;;;;;21.58;9.73;;;0.40;99.90;;;;;;5014868;28;20049;-72
2022/01/10 04:00:56;;;;;;;17.65;9.07;;;0.40;99.90;;;;;;5015499;28;20041;-72
2022/01/10 04:03:22;;;;;;;15.48;8.68;;;0.40;99.90;;;;;;5015915;28;20029;-72
2022/01/10 04:05:48;;;;;;;15.07;8.50;;;0.40;99.90;;;;;;5030826;28;20045;-72
2022/01/10 04:08:14;;;;;;;13.40;7.82;;;0.30;99.90;;;;;;5033479;28;20037;-72
2022/01/10 04:10:39;;;;;;;18.95;9.07;;;0.30;99.90;;;;;;5014409;28;20471;-73
2022/01/10 04:13:05;;;;;;;17.85;9.20;;;0.30;99.90;;;;;;4998967;28;21592;-72
2022/01/10 04:15:31;;;;;;;23.70;9.63;;;0.30;99.90;;;;;;5016043;28;20045;-72
2022/01/10 04:17:59;;;;;;;21.65;10.20;;;0.30;99.90;;;;;;5015963;28;20137;-72
2022/01/10 04:20:25;;;;;;;16.83;8.73;;;0.30;99.90;;;;;;5015452;28;20048;-72
2022/01/10 04:22:51;;;;;;;15.50;9.30;;;0.30;99.90;;;;;;5015658;28;20037;-73
2022/01/10 04:25:17;;;;;;;18.88;9.35;;;0.30;99.90;;;;;;5014682;28;20099;-72
2022/01/10 04:27:43;;;;;;;18.15;8.90;;;0.30;99.90;;;;;;5015734;28;20034;-72
2022/01/10 04:30:10;;;;;;;11.70;8.95;;;0.20;99.90;;;;;;5014758;28;20124;-72
2022/01/10 04:32:36;;;;;;;12.13;8.07;;;0.20;99.90;;;;;;5015101;28;20052;-73
2022/01/10 04:35:02;;;;;;;14.40;8.80;;;0.20;99.90;;;;;;5015248;28;20420;-72
2022/01/10 04:37:28;;;;;;;14.30;8.88;;;0.20;99.90;;;;;;4998327;28;20431;-73
2022/01/10 04:39:53;;;;;;;21.00;9.70;;;0.20;99.90;;;;;;5015031;28;20080;-72
2022/01/10 04:42:19;;;;;;;12.20;9.32;;;0.20;99.90;;;;;;5014874;28;20038;-72
2022/01/10 04:44:44;;;;;;;18.08;9.45;;;0.10;99.90;;;;;;5015037;28;20041;-72
2022/01/10 04:47:10;;;;;;;14.70;9.48;;;0.10;99.90;;;;;;5006110;28;20069;-73
2022/01/10 04:52:20;;;;;;;16.70;9.70;;;0.10;99.90;;;;;;5014398;28;20442;-73
2022/01/10 04:54:46;;;;;;;13.00;10.05;;;0.10;99.90;;;;;;5015265;28;20049;-73
2022/01/10 04:57:11;;;;;;;16.83;10.88;;;0.10;99.90;;;;;;4998320;28;20059;-73
2022/01/10 04:59:37;;;;;;;16.10;10.80;;;0.10;99.90;;;;;;5032035;28;20038;-73
2022/01/10 05:02:03;;;;;;;18.60;11.23;;;0.10;99.90;;;;;;5014130;28;20052;-72
2022/01/10 05:04:28;;;;;;;24.85;12.30;;;0.10;99.90;;;;;;5013967;28;20045;-72
2022/01/10 05:06:54;;;;;;;21.42;11.50;;;0.00;99.90;;;;;;5013201;28;20042;-73
2022/01/10 05:09:20;;;;;;;23.15;12.15;;;0.00;99.90;;;;;;5015022;28;20091;-74
2022/01/10 05:11:46;;;;;;;20.05;12.35;;;0.00;99.90;;;;;;5014333;28;20124;-73
2022/01/10 05:14:12;;;;;;;23.50;12.00;;;0.00;99.90;;;;;;5014601;28;20523;-73
2022/01/10 05:16:40;;;;;;;22.00;12.68;;;0.00;99.90;;;;;;5015360;28;20422;-73
2022/01/10 05:19:06;;;;;;;24.55;12.27;;;0.00;99.90;;;;;;5016399;28;20041;-72
2022/01/10 05:21:31;;;;;;;28.50;13.45;;;0.00;99.90;;;;;;5015125;28;20455;-73
2022/01/10 05:23:57;;;;;;;24.88;12.77;;;0.00;99.90;;;;;;5014652;28;20067;-73
2022/01/10 05:26:22;;;;;;;27.20;12.30;;;0.00;99.90;;;;;;4996249;28;20408;-72
2022/01/10 05:28:48;;;;;;;25.25;13.32;;;0.00;99.90;;;;;;5028163;28;20132;-72
2022/01/10 05:31:14;;;;;;;30.02;14.05;;;0.00;99.90;;;;;;5022112;28;20415;-72
2022/01/10 05:33:40;;;;;;;27.85;14.02;;;0.00;99.90;;;;;;4994231;28;20037;-74
2022/01/10 05:36:05;;;;;;;24.88;13.52;;;0.00;99.90;;;;;;5017804;28;20546;-73
2022/01/10 05:38:31;;;;;;;22.67;12.73;;;0.00;99.90;;;;;;5018238;28;20041;-72
2022/01/10 05:40:57;;;;;;;25.95;14.20;;;0.00;99.90;;;;;;5032810;28;20121;-74
2022/01/10 05:43:22;;;;;;;32.70;15.13;;;0.00;99.90;;;;;;5032913;28;20538;-72
2022/01/10 05:45:48;;;;;;;23.05;13.73;;;-0.10;99.90;;;;;;4996897;28;20041;-73
2022/01/10 05:48:21;;;;;;;23.75;14.05;;;-0.10;99.90;;;;;;5013223;28;20057;-73
2022/01/10 05:50:47;;;;;;;22.45;14.02;;;0.00;99.90;;;;;;5014699;28;20049;-72
2022/01/10 05:53:13;;;;;;;29.08;14.25;;;-0.10;99.90;;;;;;4998506;28;20088;-73
2022/01/10 05:55:39;;;;;;;24.77;15.10;;;-0.10;99.90;;;;;;5015089;28;20483;-72
2022/01/10 05:58:06;;;;;;;29.02;15.18;;;-0.10;99.90;;;;;;5015203;28;20405;-73
2022/01/10 06:00:34;;;;;;;25.08;14.32;;;-0.10;99.90;;;;;;5015243;28;20506;-72
2022/01/10 06:03:00;;;;;;;29.52;15.75;;;-0.10;99.90;;;;;;5014422;28;20423;-73
2022/01/10 06:05:31;;;;;;;19.45;14.50;;;-0.10;99.90;;;;;;5014580;28;20121;-73
2022/01/10 06:08:02;;;;;;;23.27;14.30;;;-0.10;99.90;;;;;;5014850;28;20475;-73
2022/01/10 06:10:29;;;;;;;24.58;15.23;;;-0.10;99.90;;;;;;5014955;28;20091;-72
2022/01/10 06:12:56;;;;;;;23.33;15.90;;;-0.10;99.90;;;;;;5032471;28;20049;-72
2022/01/10 06:15:22;;;;;;;26.85;15.65;;;-0.20;99.90;;;;;;5014492;28;20506;-72
2022/01/10 06:17:47;;;;;;;23.50;14.93;;;-0.20;99.90;;;;;;5017606;28;20082;-73
2022/01/10 06:20:13;;;;;;;29.38;16.58;;;-0.10;99.90;;;;;;5016640;28;20057;-74
2022/01/10 06:22:39;;;;;;;33.65;18.85;;;-0.20;99.90;;;;;;5033877;28;20045;-74
2022/01/10 06:25:07;;;;;;;30.30;17.52;;;-0.20;99.90;;;;;;4998800;28;20065;-74
2022/01/10 06:27:33;;;;;;;27.33;16.63;;;-0.20;99.90;;;;;;5011043;28;20099;-74
2022/01/10 06:29:58;;;;;;;26.73;17.13;;;-0.20;99.90;;;;;;5016078;28;20033;-74
2022/01/10 06:32:24;;;;;;;38.25;21.75;;;-0.20;99.90;;;;;;5014509;28;20034;-74
2022/01/10 06:34:51;;;;;;;27.15;18.17;;;-0.20;99.90;;;;;;5015976;28;20053;-73
2022/01/10 06:37:17;;;;;;;27.67;17.60;;;-0.30;99.90;;;;;;5015260;28;20076;-74
2022/01/10 06:39:42;;;;;;;30.17;18.65;;;-0.30;99.90;;;;;;5015843;28;20414;-74
2022/01/10 06:42:08;;;;;;;26.50;16.67;;;-0.30;99.90;;;;;;5015401;28;20041;-73
2022/01/10 06:44:34;;;;;;;24.45;17.00;;;-0.30;99.90;;;;;;5013294;28;20049;-73
2022/01/10 06:46:59;;;;;;;27.35;16.40;;;-0.30;99.90;;;;;;5013888;28;20046;-73
2022/01/10 06:49:25;;;;;;;27.92;16.70;;;-0.30;99.90;;;;;;5032844;28;20036;-73
2022/01/10 06:51:51;;;;;;;24.77;16.38;;;-0.30;99.90;;;;;;5015276;28;20049;-74
2022/01/10 06:54:16;;;;;;;26.50;18.35;;;-0.30;99.90;;;;;;5015420;28;20045;-74
2022/01/10 06:56:42;;;;;;;26.05;17.80;;;-0.30;99.90;;;;;;5015040;28;20443;-74
2022/01/10 06:59:08;;;;;;;30.23;18.55;;;-0.30;99.90;;;;;;5012213;28;20036;-74
2022/01/10 07:01:34;;;;;;;30.63;18.40;;;-0.30;99.90;;;;;;5005594;28;21461;-74
2022/01/10 07:04:00;;;;;;;29.92;18.60;;;-0.30;99.90;;;;;;4996968;28;20037;-74
2022/01/10 07:06:26;;;;;;;24.52;17.10;;;-0.30;99.90;;;;;;5012069;28;20042;-74
2022/01/10 07:08:51;;;;;;;29.35;17.67;;;-0.30;99.90;;;;;;5015549;28;20060;-74
2022/01/10 07:11:17;;;;;;;26.42;17.45;;;-0.30;99.90;;;;;;5012619;28;20069;-74
2022/01/10 07:13:43;;;;;;;26.55;18.60;;;-0.30;99.90;;;;;;4980927;28;20042;-74
2022/01/10 07:16:08;;;;;;;27.08;18.92;;;-0.30;99.90;;;;;;5001482;28;20079;-74
2022/01/10 07:18:34;;;;;;;28.02;18.70;;;-0.30;99.90;;;;;;5015177;28;20444;-74
2022/01/10 07:20:59;;;;;;;27.55;18.48;;;-0.30;99.90;;;;;;4999019;28;20546;-74
2022/01/10 07:23:25;;;;;;;25.58;17.02;;;-0.30;99.90;;;;;;5014321;28;20490;-74
2022/01/10 07:25:51;;;;;;;25.33;17.15;;;-0.30;99.90;;;;;;5010755;28;20045;-74
2022/01/10 07:28:16;;;;;;;25.50;16.92;;;-0.30;99.90;;;;;;5031678;28;20052;-73
2022/01/10 07:30:42;;;;;;;18.65;15.18;;;-0.30;99.90;;;;;;4998192;28;20045;-74
2022/01/10 07:33:07;;;;;;;20.50;15.10;;;-0.40;99.90;;;;;;4983743;28;20037;-74
2022/01/10 07:35:33;;;;;;;23.05;15.95;;;-0.40;99.90;;;;;;5004849;28;20411;-74
2022/01/10 07:37:59;;;;;;;20.88;16.08;;;-0.40;99.90;;;;;;5008742;28;20073;-74
2022/01/10 07:40:25;;;;;;;20.00;15.82;;;-0.40;99.90;;;;;;5012522;28;20085;-74
2022/01/10 07:42:51;;;;;;;21.33;16.05;;;-0.40;99.90;;;;;;5011131;28;20088;-74
2022/01/10 07:45:17;;;;;;;20.73;15.38;;;-0.40;99.90;;;;;;5014235;28;20095;-74
2022/01/10 07:47:43;;;;;;;23.35;16.80;;;-0.40;99.90;;;;;;5000085;28;20129;-74
2022/01/10 07:50:09;;;;;;;21.80;17.33;;;-0.40;99.90;;;;;;5013904;28;20132;-74
2022/01/10 07:52:35;;;;;;;25.67;17.80;;;-0.40;99.90;;;;;;4997836;28;20049;-74
2022/01/10 07:55:02;;;;;;;26.98;18.90;;;-0.30;99.90;;;;;;4997780;28;20057;-74
2022/01/10 07:57:28;;;;;;;24.20;18.10;;;-0.30;99.90;;;;;;5003856;28;20400;-74
2022/01/10 07:59:54;;;;;;;26.40;18.42;;;-0.30;99.90;;;;;;5012305;28;20041;-74
2022/01/10 08:02:21;;;;;;;27.70;19.88;;;-0.30;99.90;;;;;;5009969;28;20052;-74
2022/01/10 08:04:47;;;;;;;26.98;20.25;;;-0.20;99.90;;;;;;5010981;28;20399;-74
2022/01/10 08:07:13;;;;;;;29.75;21.17;;;-0.30;99.90;;;;;;5013891;28;20693;-74
2022/01/10 08:09:39;;;;;;;30.17;20.83;;;-0.20;99.90;;;;;;5013899;28;20095;-74
2022/01/10 08:12:05;;;;;;;32.95;20.15;;;-0.20;99.90;;;;;;5013401;28;20029;-74
2022/01/10 08:14:32;;;;;;;26.40;18.45;;;-0.20;99.90;;;;;;5014304;28;20045;-74
2022/01/10 08:16:58;;;;;;;29.58;17.92;;;-0.20;99.90;;;;;;5004998;28;20045;-74
2022/01/10 08:19:26;;;;;;;25.65;18.05;;;-0.20;99.90;;;;;;5013247;28;20068;-74
2022/01/10 08:21:55;;;;;;;91.60;21.55;;;-0.20;99.90;;;;;;5015869;28;20042;-74
2022/01/10 08:24:22;;;;;;;31.20;19.90;;;-0.20;99.90;;;;;;4999072;28;20041;-74
2022/01/10 08:26:51;;;;;;;31.88;23.08;;;-0.30;99.90;;;;;;5003174;28;20046;-74
2022/01/10 08:29:17;;;;;;;25.48;20.00;;;-0.30;99.90;;;;;;5005694;28;20398;-74
2022/01/10 08:31:42;;;;;;;33.17;19.40;;;-0.20;99.90;;;;;;5012204;28;20120;-73
2022/01/10 08:34:08;;;;;;;29.42;19.48;;;-0.20;99.90;;;;;;5011175;28;20073;-74
2022/01/10 08:36:34;;;;;;;24.15;18.23;;;-0.20;99.90;;;;;;5032772;28;20491;-74
2022/01/10 08:39:02;;;;;;;28.92;19.60;;;-0.10;99.90;;;;;;5011442;28;20413;-74
2022/01/10 08:41:27;;;;;;;28.65;19.33;;;0.00;99.90;;;;;;5028397;28;20048;-74
2022/01/10 08:43:53;;;;;;;27.20;19.95;;;0.00;99.90;;;;;;5011618;28;20037;-74
2022/01/10 08:46:18;;;;;;;30.67;19.65;;;0.00;99.90;;;;;;5013292;28;20045;-74
2022/01/10 08:48:44;;;;;;;29.65;19.48;;;0.00;99.90;;;;;;5010102;28;20033;-74
2022/01/10 08:51:10;;;;;;;26.95;18.95;;;0.00;99.90;;;;;;5013105;28;20559;-73
2022/01/10 08:53:36;;;;;;;28.35;18.38;;;0.10;99.90;;;;;;5012225;28;20056;-74
2022/01/10 08:56:02;;;;;;;26.23;17.85;;;0.10;99.90;;;;;;5011547;28;20399;-73
2022/01/10 08:58:32;;;;;;;25.27;18.27;;;0.20;99.90;;;;;;5012636;28;20052;-74
2022/01/10 09:01:03;;;;;;;25.05;18.13;;;0.20;99.90;;;;;;5011555;28;20070;-74
2022/01/10 09:03:29;;;;;;;29.08;20.42;;;0.30;99.90;;;;;;5011612;28;20064;-74
2022/01/10 09:05:55;;;;;;;35.97;20.65;;;0.30;99.90;;;;;;4996366;28;20045;-72
2022/01/10 09:08:23;;;;;;;27.77;21.58;;;0.40;99.90;;;;;;5005165;28;20356;-72
2022/01/10 09:10:49;;;;;;;35.95;21.98;;;0.40;99.90;;;;;;5012726;28;20085;-72
2022/01/10 09:13:14;;;;;;;33.25;21.02;;;0.50;99.90;;;;;;5011441;28;20065;-72
2022/01/10 09:15:40;;;;;;;27.75;20.70;;;0.50;99.90;;;;;;5008748;28;20384;-72
2022/01/10 09:18:06;;;;;;;29.23;21.33;;;0.50;99.90;;;;;;5009322;28;20045;-72
2022/01/10 09:20:31;;;;;;;27.50;20.92;;;0.60;99.90;;;;;;5002362;28;20136;-72
2022/01/10 09:22:57;;;;;;;25.40;19.80;;;0.60;99.90;;;;;;5002972;28;21234;-75
2022/01/10 09:25:22;;;;;;;30.80;20.48;;;0.60;99.90;;;;;;5009761;28;20069;-74
2022/01/10 09:27:48;;;;;;;30.98;21.10;;;0.70;99.90;;;;;;5006163;28;20038;-74
2022/01/10 09:30:14;;;;;;;28.77;21.13;;;0.70;99.90;;;;;;5011322;28;20605;-74
2022/01/10 09:32:40;;;;;;;34.75;22.58;;;0.80;99.90;;;;;;5012603;28;20045;-74
2022/01/10 09:35:07;;;;;;;32.63;22.17;;;0.80;99.90;;;;;;4994408;28;20483;-74
2022/01/10 09:37:33;;;;;;;33.40;21.70;;;0.80;99.90;;;;;;5015013;28;20052;-75
2022/01/10 09:39:58;;;;;;;36.50;21.75;;;0.90;99.90;;;;;;5004242;28;20056;-75
2022/01/10 09:42:24;;;;;;;34.58;21.27;;;0.90;99.90;;;;;;5027363;28;20071;-75
2022/01/10 09:44:49;;;;;;;32.38;21.60;;;0.90;99.90;;;;;;4992216;28;20179;-75
2022/01/10 09:47:16;;;;;;;30.08;22.25;;;1.00;99.90;;;;;;5005558;28;20037;-75
2022/01/10 09:49:41;;;;;;;36.05;23.55;;;1.00;99.90;;;;;;5023727;28;20046;-74
2022/01/10 09:52:09;;;;;;;28.73;21.55;;;1.00;99.90;;;;;;4999083;28;20064;-75
2022/01/10 09:54:35;;;;;;;26.70;20.60;;;1.10;99.90;;;;;;5007034;28;20048;-75
2022/01/10 09:57:00;;;;;;;30.95;21.08;;;1.10;99.90;;;;;;5012020;28;20042;-74
2022/01/10 09:59:26;;;;;;;33.58;23.27;;;1.10;99.90;;;;;;5011700;28;20140;-75
2022/01/10 10:01:52;;;;;;;31.50;21.77;;;1.20;99.90;;;;;;5011640;28;20042;-75
2022/01/10 10:04:19;;;;;;;27.25;20.80;;;1.20;99.90;;;;;;5032300;28;20061;-75
2022/01/10 10:06:45;;;;;;;31.45;21.58;;;1.20;99.90;;;;;;5014792;28;20539;-75
2022/01/10 10:09:11;;;;;;;32.10;21.58;;;1.30;99.90;;;;;;5014298;28;20033;-75
2022/01/10 10:11:48;;;;;;;35.90;23.30;;;1.40;99.90;;;;;;5007286;28;20117;-75
2022/01/10 10:14:20;;;;;;;36.58;24.33;;;1.40;99.90;;;;;;5002762;28;20060;-74
2022/01/10 10:16:49;;;;;;;36.80;25.48;;;1.50;99.90;;;;;;5022672;28;20045;-75
2022/01/10 10:19:18;;;;;;;35.35;26.08;;;1.50;99.90;;;;;;5005578;28;20049;-75
2022/01/10 10:21:43;;;;;;;39.40;25.73;;;1.60;99.90;;;;;;5002780;28;20045;-75
2022/01/10 10:24:09;;;;;;;44.08;27.77;;;1.70;99.90;;;;;;5030099;28;20158;-75
2022/01/10 10:26:35;;;;;;;37.85;25.20;;;1.70;99.90;;;;;;5005709;28;20061;-75
2022/01/10 10:29:02;;;;;;;31.23;24.13;;;1.80;99.90;;;;;;5002111;28;20042;-75
2022/01/10 10:31:30;;;;;;;39.30;26.48;;;1.80;99.90;;;;;;5008098;28;20037;-75
2022/01/10 10:33:57;;;;;;;32.08;25.33;;;1.80;99.90;;;;;;5025702;28;20045;-75
2022/01/10 10:36:25;;;;;;;35.63;24.92;;;1.90;99.90;;;;;;5008113;28;20552;-75
2022/01/10 10:38:51;;;;;;;33.88;25.25;;;1.90;99.90;;;;;;5011558;28;20049;-75
2022/01/10 10:41:16;;;;;;;35.05;26.58;;;2.00;99.90;;;;;;5027762;28;20044;-75
2022/01/10 10:43:43;;;;;;;43.05;26.67;;;2.00;99.90;;;;;;4991160;28;20144;-75
2022/01/10 10:46:17;;;;;;;40.97;27.08;;;2.10;99.90;;;;;;4990786;28;20030;-75
2022/01/10 10:48:49;;;;;;;42.25;26.92;;;2.10;99.90;;;;;;5004129;28;20042;-75
2022/01/10 10:51:15;;;;;;;42.10;27.20;;;2.20;99.90;;;;;;5006857;28;20431;-75
2022/01/10 10:53:40;;;;;;;36.70;25.50;;;2.20;99.90;;;;;;5013709;28;20053;-75
2022/01/10 10:56:07;;;;;;;41.75;27.67;;;2.30;99.90;;;;;;5017373;28;20582;-75
2022/01/10 10:58:33;;;;;;;36.10;24.25;;;2.30;99.90;;;;;;5018652;28;20050;-75
2022/01/10 11:01:01;;;;;;;43.10;27.80;;;2.40;99.90;;;;;;5031570;28;20095;-75
2022/01/10 11:03:27;;;;;;;42.83;29.88;;;2.40;99.90;;;;;;5007349;28;20057;-75
2022/01/10 11:06:02;;;;;;;38.13;29.30;;;2.50;99.90;;;;;;5047269;23;20539;-73
2022/01/10 11:08:31;;;;;;;37.92;27.05;;;2.60;99.90;;;;;;5065392;28;20048;-73
2022/01/10 11:10:59;;;;;;;41.75;27.60;;;2.70;99.90;;;;;;5064568;28;20036;-73
2022/01/10 11:13:27;;;;;;;41.92;27.92;;;2.80;99.90;;;;;;5060345;28;20128;-74
2022/01/10 11:15:54;;;;;;;40.00;27.23;;;2.80;99.90;;;;;;5066098;28;20496;-74
2022/01/10 11:18:21;;;;;;;46.38;28.52;;;2.90;99.90;;;;;;5067683;28;20059;-73
2022/01/10 11:20:50;;;;;;;47.58;28.52;;;2.90;99.90;;;;;;5070615;28;20084;-73
2022/01/10 11:23:16;;;;;;;40.17;26.40;;;3.00;99.90;;;;;;5046794;28;20391;-73
2022/01/10 11:25:42;;;;;;;47.28;28.42;;;3.10;99.90;;;;;;5049752;28;20040;-74
2022/01/10 11:28:23;;;;;;;46.63;28.02;;;3.10;99.90;;;;;;5054889;28;20417;-73
2022/01/10 11:30:51;;;;;;;35.80;23.77;;;3.20;99.90;;;;;;5067569;28;20111;-73
2022/01/10 11:33:26;;;;;;;30.33;23.35;;;3.20;99.90;;;;;;5068353;28;20441;-73
2022/01/10 11:35:56;;;;;;;37.42;25.80;;;3.30;99.90;;;;;;5060723;28;20037;-74
2022/01/10 11:38:34;;;;;;;32.22;23.50;;;3.30;99.90;;;;;;5061142;28;20044;-73
2022/01/10 11:41:05;;;;;;;34.33;23.88;;;3.40;99.90;;;;;;5059095;28;20564;-73
2022/01/10 11:43:45;;;;;;;37.28;24.88;;;3.40;99.90;;;;;;5063718;28;20433;-73
2022/01/10 11:46:15;;;;;;;34.78;26.42;;;3.40;99.90;;;;;;5060980;28;20040;-73
2022/01/10 11:48:47;;;;;;;35.42;24.08;;;3.50;99.90;;;;;;5074546;28;20036;-73
2022/01/10 11:51:15;;;;;;;38.55;23.88;;;3.50;99.90;;;;;;5065556;28;20079;-73
2022/01/10 11:53:43;;;;;;;35.22;24.35;;;3.60;99.90;;;;;;5069062;28;20044;-73
2022/01/10 11:56:23;;;;;;;32.45;23.10;;;3.60;99.90;;;;;;5073088;28;20044;-73
2022/01/10 11:59:16;;;;;;;39.05;25.45;;;3.70;99.90;;;;;;5065399;28;20064;-73
2022/01/10 12:01:59;;;;;;;36.03;23.90;;;3.70;99.90;;;;;;5040739;28;20048;-73
2022/01/10 12:04:25;;;;;;;;;;;3.80;99.90;;;;;;5071077;28;20040;-74
2022/01/10 12:06:51;;;;;;;29.67;22.17;;;3.90;99.90;;;;;;5045182;28;19994;-73
2022/01/10 12:09:18;;;;;;;32.90;23.48;;;3.90;99.90;;;;;;5060061;28;20036;-74
2022/01/10 12:11:45;;;;;;;35.17;25.50;;;3.90;99.90;;;;;;5067658;28;20040;-74
2022/01/10 12:14:12;;;;;;;34.17;24.77;;;3.90;99.90;;;;;;5072192;28;20117;-74
2022/01/10 12:16:38;;;;;;;34.40;23.75;;;4.00;99.90;;;;;;5064331;28;20032;-73
2022/01/10 12:19:05;;;;;;;33.95;24.55;;;4.00;99.90;;;;;;5066175;28;20498;-73
2022/01/10 12:21:31;;;;;;;38.30;25.48;;;4.10;99.90;;;;;;5062183;28;20043;-74
2022/01/10 12:23:57;;;;;;;43.08;26.13;;;4.10;99.90;;;;;;5055897;28;20405;-74
2022/01/10 12:26:24;;;;;;;56.55;26.98;;;4.20;99.90;;;;;;5061671;28;20032;-74
2022/01/10 12:28:52;;;;;;;51.30;27.65;;;4.20;99.90;;;;;;5058082;28;20028;-74
2022/01/10 12:31:20;;;;;;;32.60;24.02;;;4.30;99.90;;;;;;5058614;28;20047;-73
2022/01/10 12:33:46;;;;;;;31.05;23.83;;;4.30;99.90;;;;;;5044533;28;20401;-73
2022/01/10 12:36:12;;;;;;;33.53;23.52;;;4.40;99.90;;;;;;5064659;28;20036;-73
2022/01/10 12:38:38;;;;;;;33.72;23.23;;;4.40;99.90;;;;;;5066412;28;20099;-74
2022/01/10 12:41:04;;;;;;;36.50;25.10;;;4.40;99.90;;;;;;5047523;28;20041;-74
2022/01/10 12:43:30;;;;;;;35.13;24.02;;;4.50;99.90;;;;;;5056878;28;20036;-73
2022/01/10 12:45:56;;;;;;;36.97;24.90;;;4.50;99.90;;;;;;5065866;28;20054;-73
2022/01/10 12:48:24;;;;;;;35.83;25.02;;;4.60;99.90;;;;;;5064931;28;20097;-73
2022/01/10 12:50:52;;;;;;;28.95;23.75;;;4.70;99.90;;;;;;5057060;28;20139;-73
2022/01/10 12:53:18;;;;;;;31.75;23.60;;;4.70;99.90;;;;;;5069134;28;20419;-73
2022/01/10 12:55:44;;;;;;;36.25;24.35;;;4.80;99.90;;;;;;5056303;28;20508;-73